createdAt,value
2023-05-17T00:02:22.644Z,99637.25
2023-05-17T00:05:25.397Z,99633.78
2023-05-17T00:08:27.978Z,99634.63
2023-05-17T00:11:30.671Z,99635.97
2023-05-17T00:14:33.000Z,99641.00
2023-05-17T00:17:37.419Z,99641.94
2023-05-17T00:20:39.845Z,99647.16
2023-05-17T00:23:42.497Z,99643.66
2023-05-17T00:26:44.858Z,99647.72
2023-05-17T00:29:47.535Z,99635.78
2023-05-17T00:32:49.944Z,99630.72
2023-05-17T00:35:53.950Z,99634.84
2023-05-17T00:38:56.332Z,99624.66
2023-05-17T00:41:59.748Z,99627.47
2023-05-17T00:45:02.108Z,99626.78
2023-05-17T00:48:05.069Z,99618.03
2023-05-17T00:51:07.774Z,99621.00
2023-05-17T00:54:10.639Z,99625.47
2023-05-17T00:57:13.149Z,99631.12
2023-05-17T01:00:15.906Z,99628.78
2023-05-17T01:03:18.465Z,99630.81
2023-05-17T01:06:21.264Z,99645.69
2023-05-17T01:09:23.731Z,99651.25
2023-05-17T01:12:26.447Z,99651.59
2023-05-17T01:15:31.925Z,99657.84
2023-05-17T01:18:40.656Z,99652.13
2023-05-17T01:21:43.042Z,99655.00
2023-05-17T01:24:52.819Z,99644.69
2023-05-17T01:27:58.582Z,99642.13
2023-05-17T01:31:02.597Z,99637.00
2023-05-17T01:34:09.281Z,99624.81
2023-05-17T01:37:11.934Z,99623.22
2023-05-17T01:40:14.452Z,99627.50
2023-05-17T01:43:26.950Z,99623.09
2023-05-17T01:46:37.608Z,99629.94
2023-05-17T01:49:41.843Z,99627.19
2023-05-17T01:52:53.476Z,99615.47
2023-05-17T01:56:07.714Z,99620.16
2023-05-17T01:59:11.834Z,99613.66
2023-05-17T02:02:14.566Z,99606.38
2023-05-17T02:05:17.857Z,99616.56
2023-05-17T02:08:20.390Z,99618.06
2023-05-17T02:11:23.062Z,99614.44
2023-05-17T02:14:28.117Z,99616.88
2023-05-17T02:17:30.510Z,99624.72
2023-05-17T02:20:33.353Z,99621.19
2023-05-17T02:23:35.921Z,99628.25
2023-05-17T02:26:38.654Z,99617.16
2023-05-17T02:29:40.979Z,99624.31
2023-05-17T02:32:43.637Z,99635.53
2023-05-17T02:35:46.182Z,99643.44
2023-05-17T02:38:48.840Z,99656.44
2023-05-17T02:41:51.244Z,99661.84
2023-05-17T02:44:56.320Z,99670.78
2023-05-17T02:47:58.784Z,99665.47
2023-05-17T02:51:01.882Z,99670.78
2023-05-17T02:54:04.557Z,99662.00
2023-05-17T02:57:07.402Z,99671.34
2023-05-17T03:00:10.028Z,99670.25
2023-05-17T03:03:12.842Z,99672.28
2023-05-17T03:06:15.560Z,99668.94
2023-05-17T03:09:18.902Z,99669.19
2023-05-17T03:12:22.801Z,99668.50
2023-05-17T03:15:26.893Z,99672.25
2023-05-17T03:18:29.503Z,99668.69
2023-05-17T03:21:32.657Z,99668.94
2023-05-17T03:24:35.073Z,99678.28
2023-05-17T03:27:38.011Z,99680.72
2023-05-17T03:30:41.091Z,99682.38
2023-05-17T03:33:45.756Z,99684.84
2023-05-17T03:36:49.038Z,99675.88
2023-05-17T03:39:51.732Z,99687.75
2023-05-17T03:42:54.286Z,99686.66
2023-05-17T03:45:57.010Z,99669.03
2023-05-17T03:48:59.489Z,99679.97
2023-05-17T03:52:03.497Z,99693.22
2023-05-17T03:55:06.025Z,99701.75
2023-05-17T03:58:09.268Z,99706.63
2023-05-17T04:01:11.993Z,99715.97
2023-05-17T04:04:14.789Z,99724.59
2023-05-17T04:07:17.479Z,99720.75
2023-05-17T04:10:20.296Z,99727.75
2023-05-17T04:13:22.697Z,99716.75
2023-05-17T04:16:25.587Z,99715.34
2023-05-17T04:19:28.189Z,99715.81
2023-05-17T04:22:30.850Z,99727.56
2023-05-17T04:25:33.386Z,99739.41
2023-05-17T04:28:36.080Z,99724.09
2023-05-17T04:31:38.633Z,99727.75
2023-05-17T04:34:41.413Z,99737.75
2023-05-17T04:37:44.565Z,99739.81
2023-05-17T04:40:48.193Z,99745.22
2023-05-17T04:43:50.806Z,99756.06
2023-05-17T04:46:53.820Z,99767.19
2023-05-17T04:49:56.266Z,99775.78
2023-05-17T04:52:59.817Z,99782.44
2023-05-17T04:56:04.214Z,99782.25
2023-05-17T04:59:07.261Z,99785.22
2023-05-17T05:02:10.656Z,99789.13
2023-05-17T05:05:13.504Z,99780.78
2023-05-17T05:08:17.041Z,99779.34
2023-05-17T05:11:20.222Z,99791.94
2023-05-17T05:14:22.606Z,99794.69
2023-05-17T05:17:25.471Z,99797.03
2023-05-17T05:20:28.907Z,99802.06
2023-05-17T05:23:31.859Z,99800.00
2023-05-17T05:26:34.523Z,99797.69
2023-05-17T05:29:38.478Z,99803.59
2023-05-17T05:32:41.565Z,99806.56
2023-05-17T05:35:45.712Z,99816.19
2023-05-17T05:38:48.562Z,99809.72
2023-05-17T05:41:52.113Z,99808.72
2023-05-17T05:44:54.835Z,99821.97
2023-05-17T05:47:58.122Z,99827.28
2023-05-17T05:51:00.822Z,99826.44
2023-05-17T05:54:03.732Z,99825.63
2023-05-17T05:57:06.681Z,99834.00
2023-05-17T06:00:09.850Z,99831.91
2023-05-17T06:03:15.575Z,99836.34
2023-05-17T06:06:19.452Z,99839.06
2023-05-17T06:09:22.035Z,99836.00
2023-05-17T06:12:24.719Z,99834.88
2023-05-17T06:15:27.294Z,99838.97
2023-05-17T06:18:30.021Z,99843.34
2023-05-17T06:21:33.610Z,99838.53
2023-05-17T06:24:36.322Z,99841.41
2023-05-17T06:27:38.832Z,99848.69
2023-05-17T06:30:41.522Z,99855.19
2023-05-17T06:33:43.902Z,99850.00
2023-05-17T06:36:46.558Z,99857.97
2023-05-17T06:39:55.444Z,99862.50
2023-05-17T06:43:02.610Z,99859.59
2023-05-17T06:46:04.894Z,99851.91
2023-05-17T06:49:07.818Z,99859.28
2023-05-17T06:52:10.249Z,99869.78
2023-05-17T06:55:12.912Z,99872.84
2023-05-17T06:58:15.341Z,99870.22
2023-05-17T07:01:18.819Z,99870.75
2023-05-17T07:04:21.759Z,99881.13
2023-05-17T07:07:24.473Z,99879.91
2023-05-17T07:10:26.896Z,99881.75
2023-05-17T07:13:29.508Z,99887.66
2023-05-17T07:16:31.891Z,99894.19
2023-05-17T07:19:34.526Z,99899.44
2023-05-17T07:22:37.455Z,99900.78
2023-05-17T07:25:40.540Z,99892.50
2023-05-17T07:28:43.251Z,99895.03
2023-05-17T07:31:45.885Z,99889.25
2023-05-17T07:34:48.214Z,99898.97
2023-05-17T07:37:51.098Z,99902.41
2023-05-17T07:40:53.406Z,99911.56
2023-05-17T07:43:56.187Z,99908.38
2023-05-17T07:46:58.543Z,99899.31
2023-05-17T07:50:01.466Z,99901.66
2023-05-17T07:53:03.929Z,99903.63
2023-05-17T07:56:06.719Z,99903.41
2023-05-17T07:59:09.113Z,99901.00
2023-05-17T08:02:11.802Z,99907.94
2023-05-17T08:05:14.564Z,99913.66
2023-05-17T08:08:17.005Z,99913.34
2023-05-17T08:11:22.922Z,99833.87
2023-05-17T08:14:26.975Z,99911.75
2023-05-17T08:17:29.727Z,99917.84
2023-05-17T08:20:32.017Z,99925.37
2023-05-17T08:23:34.926Z,99932.53
2023-05-17T08:26:37.671Z,99929.34
2023-05-17T08:29:40.283Z,99934.91
2023-05-17T08:32:42.719Z,99937.84
2023-05-17T08:35:45.502Z,99933.53
2023-05-17T08:38:47.881Z,99932.78
2023-05-17T08:41:50.637Z,99940.50
2023-05-17T08:44:53.774Z,99933.78
2023-05-17T08:47:56.718Z,99929.91
2023-05-17T08:51:00.249Z,99937.06
2023-05-17T08:54:06.146Z,99942.22
2023-05-17T08:57:10.814Z,99939.47
2023-05-17T09:00:16.407Z,99939.69
2023-05-17T09:03:18.958Z,99940.00
2023-05-17T09:06:22.794Z,99938.22
2023-05-17T09:09:25.796Z,99943.03
2023-05-17T09:12:29.813Z,99937.28
2023-05-17T09:15:34.227Z,99933.78
2023-05-17T09:18:37.128Z,99939.13
2023-05-17T09:21:39.648Z,99939.87
2023-05-17T09:24:42.514Z,99940.19
2023-05-17T09:27:44.926Z,99934.06
2023-05-17T09:30:48.500Z,99940.81
2023-05-17T09:33:51.034Z,99947.06
2023-05-17T09:36:54.640Z,99946.94
2023-05-17T09:39:57.056Z,99947.09
2023-05-17T09:42:59.802Z,99946.19
2023-05-17T09:46:02.262Z,99952.06
2023-05-17T09:49:05.500Z,99954.78
2023-05-17T09:52:08.436Z,99961.25
2023-05-17T09:55:15.362Z,99966.41
2023-05-17T09:58:17.684Z,99966.38
2023-05-17T10:01:20.804Z,99977.13
